Ballymoney, United Kingdom
Current Conditions -  °F | °C
As of 4:50 AM on Sunday 26 Oct 2014 (Local Time) from EGAA Reporting Station
Overcast Overcast  
Wind Chill: 52°   Ceiling: 1700
Heat Index: 52°   Visibility: 6mi
Dew Point: 48°   Wind: 17mph
Humidity: 88%   Direction: 220°SW
Pressure: 29.77"   Gusts: NA
Location:  55.07°N, 6.51°W
Report Text: EGAA 260350Z 22015KT 9999 FEW012 BKN017 OVC027 11/09 Q1008
Loading
Personal Weather Stations






























Interactive Weather Map
Tropical Storm Tracking
New forecast layout! Learn more

10-Day Weather Forecast

Advertisements
Track Severe Weather on mobile